sensor_id;sensor_type;location;lat;lon;timestamp;P1;durP1;ratioP1;P2;durP2;ratioP2
83715;SDS011;73698;51.138;6.950;2024-03-08T00:01:52;19.63;;;10.50;;
83715;SDS011;73698;51.138;6.950;2024-03-08T00:04:18;22.85;;;10.63;;
83715;SDS011;73698;51.138;6.950;2024-03-08T00:06:43;29.80;;;11.65;;
83715;SDS011;73698;51.138;6.950;2024-03-08T00:09:11;22.58;;;12.27;;
83715;SDS011;73698;51.138;6.950;2024-03-08T00:11:37;25.55;;;11.88;;
83715;SDS011;73698;51.138;6.950;2024-03-08T00:14:02;22.50;;;11.18;;
83715;SDS011;73698;51.138;6.950;2024-03-08T00:16:31;24.95;;;11.68;;
83715;SDS011;73698;51.138;6.950;2024-03-08T00:18:57;24.42;;;11.93;;
83715;SDS011;73698;51.138;6.950;2024-03-08T00:21:23;20.90;;;10.38;;
83715;SDS011;73698;51.138;6.950;2024-03-08T00:23:49;24.80;;;11.98;;
83715;SDS011;73698;51.138;6.950;2024-03-08T00:26:14;22.13;;;11.73;;
83715;SDS011;73698;51.138;6.950;2024-03-08T00:28:40;23.23;;;11.18;;
83715;SDS011;73698;51.138;6.950;2024-03-08T00:31:05;26.35;;;11.68;;
83715;SDS011;73698;51.138;6.950;2024-03-08T00:33:31;19.90;;;11.50;;
83715;SDS011;73698;51.138;6.950;2024-03-08T00:35:57;23.13;;;11.75;;
83715;SDS011;73698;51.138;6.950;2024-03-08T00:38:22;26.10;;;12.10;;
83715;SDS011;73698;51.138;6.950;2024-03-08T00:40:48;24.08;;;11.50;;
83715;SDS011;73698;51.138;6.950;2024-03-08T00:43:13;26.25;;;11.07;;
83715;SDS011;73698;51.138;6.950;2024-03-08T00:45:40;22.27;;;10.80;;
83715;SDS011;73698;51.138;6.950;2024-03-08T00:48:08;23.08;;;11.95;;
83715;SDS011;73698;51.138;6.950;2024-03-08T00:50:33;29.20;;;13.07;;
83715;SDS011;73698;51.138;6.950;2024-03-08T00:52:59;22.30;;;11.52;;
83715;SDS011;73698;51.138;6.950;2024-03-08T00:55:25;27.13;;;10.93;;
83715;SDS011;73698;51.138;6.950;2024-03-08T00:57:50;26.00;;;12.45;;
83715;SDS011;73698;51.138;6.950;2024-03-08T01:00:16;26.65;;;11.88;;
83715;SDS011;73698;51.138;6.950;2024-03-08T01:02:42;26.38;;;11.88;;
83715;SDS011;73698;51.138;6.950;2024-03-08T01:05:07;24.40;;;12.23;;
83715;SDS011;73698;51.138;6.950;2024-03-08T01:07:34;25.17;;;10.93;;
83715;SDS011;73698;51.138;6.950;2024-03-08T01:10:00;24.63;;;10.85;;
83715;SDS011;73698;51.138;6.950;2024-03-08T01:12:29;26.40;;;11.57;;
83715;SDS011;73698;51.138;6.950;2024-03-08T01:14:55;25.77;;;11.40;;
83715;SDS011;73698;51.138;6.950;2024-03-08T01:17:20;24.42;;;11.40;;
83715;SDS011;73698;51.138;6.950;2024-03-08T01:19:46;29.80;;;12.38;;
83715;SDS011;73698;51.138;6.950;2024-03-08T01:22:12;25.20;;;12.07;;
83715;SDS011;73698;51.138;6.950;2024-03-08T01:24:37;26.25;;;11.75;;
83715;SDS011;73698;51.138;6.950;2024-03-08T01:27:03;22.40;;;10.88;;
83715;SDS011;73698;51.138;6.950;2024-03-08T01:29:29;23.27;;;11.55;;
83715;SDS011;73698;51.138;6.950;2024-03-08T01:31:57;24.88;;;12.35;;
83715;SDS011;73698;51.138;6.950;2024-03-08T01:34:25;29.55;;;12.35;;
83715;SDS011;73698;51.138;6.950;2024-03-08T01:36:50;23.10;;;11.25;;
83715;SDS011;73698;51.138;6.950;2024-03-08T01:39:16;22.00;;;11.63;;
83715;SDS011;73698;51.138;6.950;2024-03-08T01:41:42;25.98;;;11.73;;
83715;SDS011;73698;51.138;6.950;2024-03-08T01:44:07;22.67;;;11.07;;
83715;SDS011;73698;51.138;6.950;2024-03-08T01:46:34;26.67;;;10.82;;
83715;SDS011;73698;51.138;6.950;2024-03-08T01:49:00;23.52;;;10.88;;
83715;SDS011;73698;51.138;6.950;2024-03-08T01:51:26;24.08;;;10.60;;
83715;SDS011;73698;51.138;6.950;2024-03-08T01:53:53;24.75;;;11.50;;
83715;SDS011;73698;51.138;6.950;2024-03-08T01:56:20;23.08;;;12.23;;
83715;SDS011;73698;51.138;6.950;2024-03-08T01:58:46;28.98;;;12.18;;
83715;SDS011;73698;51.138;6.950;2024-03-08T02:01:14;27.38;;;12.63;;
83715;SDS011;73698;51.138;6.950;2024-03-08T02:03:40;28.70;;;12.45;;
83715;SDS011;73698;51.138;6.950;2024-03-08T02:06:05;30.30;;;12.77;;
83715;SDS011;73698;51.138;6.950;2024-03-08T02:08:35;24.50;;;12.90;;
83715;SDS011;73698;51.138;6.950;2024-03-08T02:11:00;29.48;;;12.55;;
83715;SDS011;73698;51.138;6.950;2024-03-08T02:13:27;30.08;;;13.13;;
83715;SDS011;73698;51.138;6.950;2024-03-08T02:15:54;27.55;;;12.63;;
83715;SDS011;73698;51.138;6.950;2024-03-08T02:18:27;27.10;;;12.10;;
83715;SDS011;73698;51.138;6.950;2024-03-08T02:20:54;31.08;;;12.80;;
83715;SDS011;73698;51.138;6.950;2024-03-08T02:23:27;23.55;;;11.05;;
83715;SDS011;73698;51.138;6.950;2024-03-08T02:25:53;27.90;;;12.70;;
83715;SDS011;73698;51.138;6.950;2024-03-08T02:28:21;24.58;;;11.75;;
83715;SDS011;73698;51.138;6.950;2024-03-08T02:30:47;24.98;;;11.07;;
83715;SDS011;73698;51.138;6.950;2024-03-08T02:33:14;23.08;;;11.68;;
83715;SDS011;73698;51.138;6.950;2024-03-08T02:35:46;26.55;;;11.60;;
83715;SDS011;73698;51.138;6.950;2024-03-08T02:38:15;26.77;;;12.20;;
83715;SDS011;73698;51.138;6.950;2024-03-08T02:40:44;30.67;;;12.85;;
83715;SDS011;73698;51.138;6.950;2024-03-08T02:43:10;26.23;;;12.85;;
83715;SDS011;73698;51.138;6.950;2024-03-08T02:45:36;25.50;;;12.48;;
83715;SDS011;73698;51.138;6.950;2024-03-08T02:48:01;32.00;;;12.52;;
83715;SDS011;73698;51.138;6.950;2024-03-08T02:50:27;27.40;;;13.40;;
83715;SDS011;73698;51.138;6.950;2024-03-08T02:52:53;23.00;;;10.93;;
83715;SDS011;73698;51.138;6.950;2024-03-08T02:55:19;24.80;;;11.85;;
83715;SDS011;73698;51.138;6.950;2024-03-08T02:57:45;27.45;;;12.38;;
83715;SDS011;73698;51.138;6.950;2024-03-08T03:00:12;29.17;;;12.38;;
83715;SDS011;73698;51.138;6.950;2024-03-08T03:02:38;23.88;;;11.73;;
83715;SDS011;73698;51.138;6.950;2024-03-08T03:05:04;26.45;;;11.55;;
83715;SDS011;73698;51.138;6.950;2024-03-08T03:07:34;25.08;;;11.63;;
83715;SDS011;73698;51.138;6.950;2024-03-08T03:09:59;25.90;;;12.45;;
83715;SDS011;73698;51.138;6.950;2024-03-08T03:12:27;27.10;;;11.38;;
83715;SDS011;73698;51.138;6.950;2024-03-08T03:14:53;22.70;;;10.77;;
83715;SDS011;73698;51.138;6.950;2024-03-08T03:17:18;33.33;;;13.00;;
83715;SDS011;73698;51.138;6.950;2024-03-08T03:19:45;28.58;;;12.88;;
83715;SDS011;73698;51.138;6.950;2024-03-08T03:22:11;26.80;;;11.18;;
83715;SDS011;73698;51.138;6.950;2024-03-08T03:24:37;24.98;;;11.43;;
83715;SDS011;73698;51.138;6.950;2024-03-08T03:27:06;25.02;;;11.73;;
83715;SDS011;73698;51.138;6.950;2024-03-08T03:29:39;30.52;;;12.43;;
83715;SDS011;73698;51.138;6.950;2024-03-08T03:32:07;29.98;;;11.52;;
83715;SDS011;73698;51.138;6.950;2024-03-08T03:34:35;25.35;;;11.30;;
83715;SDS011;73698;51.138;6.950;2024-03-08T03:37:03;27.60;;;12.32;;
83715;SDS011;73698;51.138;6.950;2024-03-08T03:39:29;25.02;;;11.30;;
83715;SDS011;73698;51.138;6.950;2024-03-08T03:41:59;30.13;;;12.70;;
83715;SDS011;73698;51.138;6.950;2024-03-08T03:44:27;24.73;;;11.98;;
83715;SDS011;73698;51.138;6.950;2024-03-08T03:46:53;20.38;;;10.85;;
83715;SDS011;73698;51.138;6.950;2024-03-08T03:49:18;27.80;;;12.75;;
83715;SDS011;73698;51.138;6.950;2024-03-08T03:51:44;25.17;;;11.68;;
83715;SDS011;73698;51.138;6.950;2024-03-08T03:54:09;31.83;;;12.13;;
83715;SDS011;73698;51.138;6.950;2024-03-08T03:56:35;23.98;;;11.18;;
83715;SDS011;73698;51.138;6.950;2024-03-08T03:59:01;30.88;;;12.65;;
83715;SDS011;73698;51.138;6.950;2024-03-08T04:01:26;26.40;;;11.35;;
83715;SDS011;73698;51.138;6.950;2024-03-08T04:03:52;28.63;;;13.43;;
83715;SDS011;73698;51.138;6.950;2024-03-08T04:06:17;30.05;;;12.52;;
83715;SDS011;73698;51.138;6.950;2024-03-08T04:08:42;23.30;;;10.98;;
83715;SDS011;73698;51.138;6.950;2024-03-08T04:11:08;28.15;;;12.93;;
83715;SDS011;73698;51.138;6.950;2024-03-08T04:13:34;31.83;;;12.25;;
83715;SDS011;73698;51.138;6.950;2024-03-08T04:16:01;26.65;;;11.55;;
83715;SDS011;73698;51.138;6.950;2024-03-08T04:18:27;28.67;;;12.30;;
83715;SDS011;73698;51.138;6.950;2024-03-08T04:20:53;25.35;;;11.50;;
83715;SDS011;73698;51.138;6.950;2024-03-08T04:23:18;25.60;;;12.00;;
83715;SDS011;73698;51.138;6.950;2024-03-08T04:25:44;22.83;;;10.65;;
83715;SDS011;73698;51.138;6.950;2024-03-08T04:28:10;28.45;;;12.70;;
83715;SDS011;73698;51.138;6.950;2024-03-08T04:30:38;30.67;;;13.02;;
83715;SDS011;73698;51.138;6.950;2024-03-08T04:33:07;29.05;;;13.07;;
83715;SDS011;73698;51.138;6.950;2024-03-08T04:35:33;31.55;;;12.93;;
83715;SDS011;73698;51.138;6.950;2024-03-08T04:37:59;29.10;;;12.15;;
83715;SDS011;73698;51.138;6.950;2024-03-08T04:40:24;28.05;;;11.73;;
83715;SDS011;73698;51.138;6.950;2024-03-08T04:42:50;28.17;;;12.50;;
83715;SDS011;73698;51.138;6.950;2024-03-08T04:45:16;25.75;;;10.63;;
83715;SDS011;73698;51.138;6.950;2024-03-08T04:47:42;28.17;;;12.23;;
83715;SDS011;73698;51.138;6.950;2024-03-08T04:50:08;27.30;;;11.88;;
83715;SDS011;73698;51.138;6.950;2024-03-08T04:52:34;25.25;;;12.63;;
83715;SDS011;73698;51.138;6.950;2024-03-08T04:55:00;26.70;;;11.55;;
83715;SDS011;73698;51.138;6.950;2024-03-08T04:57:26;28.85;;;12.70;;
83715;SDS011;73698;51.138;6.950;2024-03-08T04:59:52;27.10;;;11.57;;
83715;SDS011;73698;51.138;6.950;2024-03-08T05:02:18;33.05;;;12.85;;
83715;SDS011;73698;51.138;6.950;2024-03-08T05:04:43;28.98;;;12.95;;
83715;SDS011;73698;51.138;6.950;2024-03-08T05:07:09;28.88;;;11.70;;
83715;SDS011;73698;51.138;6.950;2024-03-08T05:09:34;30.38;;;13.20;;
83715;SDS011;73698;51.138;6.950;2024-03-08T05:12:01;30.20;;;11.75;;
83715;SDS011;73698;51.138;6.950;2024-03-08T05:14:26;28.08;;;12.93;;
83715;SDS011;73698;51.138;6.950;2024-03-08T05:16:52;30.90;;;13.30;;
83715;SDS011;73698;51.138;6.950;2024-03-08T05:19:18;25.23;;;11.75;;
83715;SDS011;73698;51.138;6.950;2024-03-08T05:21:44;31.88;;;13.77;;
83715;SDS011;73698;51.138;6.950;2024-03-08T05:24:10;26.52;;;10.95;;
83715;SDS011;73698;51.138;6.950;2024-03-08T05:26:36;25.23;;;11.55;;
83715;SDS011;73698;51.138;6.950;2024-03-08T05:29:02;28.35;;;11.68;;
83715;SDS011;73698;51.138;6.950;2024-03-08T05:31:28;27.30;;;11.85;;
83715;SDS011;73698;51.138;6.950;2024-03-08T05:33:54;26.50;;;12.30;;
83715;SDS011;73698;51.138;6.950;2024-03-08T05:36:20;25.77;;;12.10;;
83715;SDS011;73698;51.138;6.950;2024-03-08T05:38:46;36.25;;;14.15;;
83715;SDS011;73698;51.138;6.950;2024-03-08T05:41:12;25.60;;;12.30;;
83715;SDS011;73698;51.138;6.950;2024-03-08T05:43:37;29.42;;;12.43;;
83715;SDS011;73698;51.138;6.950;2024-03-08T05:46:04;29.10;;;13.63;;
83715;SDS011;73698;51.138;6.950;2024-03-08T05:48:32;30.33;;;12.88;;
83715;SDS011;73698;51.138;6.950;2024-03-08T05:50:58;29.90;;;12.88;;
83715;SDS011;73698;51.138;6.950;2024-03-08T05:53:24;27.70;;;11.15;;
83715;SDS011;73698;51.138;6.950;2024-03-08T05:55:50;34.75;;;12.32;;
83715;SDS011;73698;51.138;6.950;2024-03-08T05:58:15;28.67;;;12.27;;
83715;SDS011;73698;51.138;6.950;2024-03-08T06:00:40;29.77;;;14.20;;
83715;SDS011;73698;51.138;6.950;2024-03-08T06:03:06;23.85;;;11.85;;
83715;SDS011;73698;51.138;6.950;2024-03-08T06:05:32;24.70;;;12.50;;
83715;SDS011;73698;51.138;6.950;2024-03-08T06:07:58;26.15;;;12.07;;
83715;SDS011;73698;51.138;6.950;2024-03-08T06:10:24;32.55;;;13.40;;
83715;SDS011;73698;51.138;6.950;2024-03-08T06:12:49;27.23;;;12.13;;
83715;SDS011;73698;51.138;6.950;2024-03-08T06:15:15;29.63;;;12.30;;
83715;SDS011;73698;51.138;6.950;2024-03-08T06:17:41;28.15;;;11.90;;
83715;SDS011;73698;51.138;6.950;2024-03-08T06:20:07;28.60;;;12.70;;
83715;SDS011;73698;51.138;6.950;2024-03-08T06:22:38;36.92;;;12.52;;
83715;SDS011;73698;51.138;6.950;2024-03-08T06:25:09;24.83;;;12.10;;
83715;SDS011;73698;51.138;6.950;2024-03-08T06:27:41;28.85;;;11.80;;
83715;SDS011;73698;51.138;6.950;2024-03-08T06:30:07;31.52;;;13.93;;
83715;SDS011;73698;51.138;6.950;2024-03-08T06:32:35;22.85;;;11.30;;
83715;SDS011;73698;51.138;6.950;2024-03-08T06:35:03;29.25;;;11.63;;
83715;SDS011;73698;51.138;6.950;2024-03-08T06:37:33;32.45;;;12.80;;
83715;SDS011;73698;51.138;6.950;2024-03-08T06:39:59;30.63;;;11.50;;
83715;SDS011;73698;51.138;6.950;2024-03-08T06:42:25;31.95;;;12.70;;
83715;SDS011;73698;51.138;6.950;2024-03-08T06:44:51;30.55;;;12.82;;
83715;SDS011;73698;51.138;6.950;2024-03-08T06:47:20;28.55;;;13.48;;
83715;SDS011;73698;51.138;6.950;2024-03-08T06:49:46;32.97;;;13.38;;
83715;SDS011;73698;51.138;6.950;2024-03-08T06:52:11;30.40;;;12.13;;
83715;SDS011;73698;51.138;6.950;2024-03-08T06:54:37;30.15;;;13.38;;
83715;SDS011;73698;51.138;6.950;2024-03-08T06:57:03;29.02;;;12.48;;
83715;SDS011;73698;51.138;6.950;2024-03-08T06:59:30;27.23;;;13.30;;
83715;SDS011;73698;51.138;6.950;2024-03-08T07:01:56;28.83;;;12.18;;
83715;SDS011;73698;51.138;6.950;2024-03-08T07:04:21;28.10;;;12.45;;
83715;SDS011;73698;51.138;6.950;2024-03-08T07:06:49;24.70;;;12.60;;
83715;SDS011;73698;51.138;6.950;2024-03-08T07:09:15;28.95;;;13.00;;
83715;SDS011;73698;51.138;6.950;2024-03-08T07:11:42;27.80;;;13.10;;
83715;SDS011;73698;51.138;6.950;2024-03-08T07:14:07;25.83;;;12.23;;
83715;SDS011;73698;51.138;6.950;2024-03-08T07:16:33;28.33;;;12.15;;
83715;SDS011;73698;51.138;6.950;2024-03-08T07:19:00;26.20;;;12.85;;
83715;SDS011;73698;51.138;6.950;2024-03-08T07:21:26;27.63;;;12.30;;
83715;SDS011;73698;51.138;6.950;2024-03-08T07:23:52;29.10;;;12.80;;
83715;SDS011;73698;51.138;6.950;2024-03-08T07:26:26;29.10;;;14.18;;
83715;SDS011;73698;51.138;6.950;2024-03-08T07:28:52;37.20;;;14.05;;
83715;SDS011;73698;51.138;6.950;2024-03-08T07:31:20;24.38;;;12.13;;
83715;SDS011;73698;51.138;6.950;2024-03-08T07:33:45;28.75;;;12.45;;
83715;SDS011;73698;51.138;6.950;2024-03-08T07:36:11;29.17;;;12.57;;
83715;SDS011;73698;51.138;6.950;2024-03-08T07:38:36;23.98;;;11.88;;
83715;SDS011;73698;51.138;6.950;2024-03-08T07:41:01;28.83;;;12.07;;
83715;SDS011;73698;51.138;6.950;2024-03-08T07:43:27;24.98;;;11.50;;
83715;SDS011;73698;51.138;6.950;2024-03-08T07:45:52;28.27;;;13.20;;
83715;SDS011;73698;51.138;6.950;2024-03-08T07:48:20;23.45;;;12.60;;
83715;SDS011;73698;51.138;6.950;2024-03-08T07:50:46;26.10;;;12.18;;
83715;SDS011;73698;51.138;6.950;2024-03-08T07:53:11;23.75;;;11.10;;
83715;SDS011;73698;51.138;6.950;2024-03-08T08:36:45;25.02;;;10.88;;
83715;SDS011;73698;51.138;6.950;2024-03-08T08:39:11;21.50;;;9.70;;
83715;SDS011;73698;51.138;6.950;2024-03-08T08:41:39;19.23;;;9.77;;
83715;SDS011;73698;51.138;6.950;2024-03-08T08:44:06;24.63;;;10.50;;
83715;SDS011;73698;51.138;6.950;2024-03-08T08:46:35;23.58;;;11.38;;
83715;SDS011;73698;51.138;6.950;2024-03-08T08:49:01;24.58;;;12.00;;
83715;SDS011;73698;51.138;6.950;2024-03-08T08:51:27;21.35;;;10.25;;
83715;SDS011;73698;51.138;6.950;2024-03-08T08:53:52;21.83;;;11.38;;
83715;SDS011;73698;51.138;6.950;2024-03-08T08:56:18;22.08;;;10.73;;
83715;SDS011;73698;51.138;6.950;2024-03-08T08:58:44;22.48;;;12.40;;
83715;SDS011;73698;51.138;6.950;2024-03-08T09:01:10;21.75;;;11.25;;
83715;SDS011;73698;51.138;6.950;2024-03-08T09:03:36;21.80;;;10.77;;
83715;SDS011;73698;51.138;6.950;2024-03-08T09:06:03;20.20;;;11.20;;
83715;SDS011;73698;51.138;6.950;2024-03-08T09:08:29;23.58;;;9.98;;
83715;SDS011;73698;51.138;6.950;2024-03-08T09:10:54;18.75;;;9.45;;
83715;SDS011;73698;51.138;6.950;2024-03-08T09:13:20;22.85;;;10.60;;
83715;SDS011;73698;51.138;6.950;2024-03-08T09:15:45;20.08;;;9.93;;
83715;SDS011;73698;51.138;6.950;2024-03-08T09:18:10;27.52;;;12.10;;
83715;SDS011;73698;51.138;6.950;2024-03-08T09:20:36;18.27;;;9.15;;
83715;SDS011;73698;51.138;6.950;2024-03-08T09:23:02;25.73;;;10.65;;
83715;SDS011;73698;51.138;6.950;2024-03-08T09:25:28;20.38;;;10.65;;
83715;SDS011;73698;51.138;6.950;2024-03-08T09:27:54;21.75;;;11.05;;
83715;SDS011;73698;51.138;6.950;2024-03-08T09:30:19;23.85;;;11.20;;
83715;SDS011;73698;51.138;6.950;2024-03-08T09:32:46;18.70;;;9.00;;
83715;SDS011;73698;51.138;6.950;2024-03-08T09:35:12;20.67;;;10.35;;
83715;SDS011;73698;51.138;6.950;2024-03-08T09:37:37;18.42;;;10.70;;
83715;SDS011;73698;51.138;6.950;2024-03-08T09:40:03;20.08;;;10.48;;
83715;SDS011;73698;51.138;6.950;2024-03-08T09:42:34;17.23;;;9.70;;
83715;SDS011;73698;51.138;6.950;2024-03-08T09:45:07;23.25;;;9.88;;
83715;SDS011;73698;51.138;6.950;2024-03-08T09:47:35;19.50;;;9.83;;
83715;SDS011;73698;51.138;6.950;2024-03-08T09:50:05;19.27;;;10.48;;
83715;SDS011;73698;51.138;6.950;2024-03-08T09:52:34;17.88;;;9.05;;
83715;SDS011;73698;51.138;6.950;2024-03-08T09:55:04;17.75;;;10.15;;
83715;SDS011;73698;51.138;6.950;2024-03-08T09:57:31;21.65;;;10.15;;
83715;SDS011;73698;51.138;6.950;2024-03-08T09:59:57;20.10;;;11.75;;
83715;SDS011;73698;51.138;6.950;2024-03-08T10:02:23;20.25;;;9.85;;
83715;SDS011;73698;51.138;6.950;2024-03-08T10:04:48;19.05;;;11.02;;
83715;SDS011;73698;51.138;6.950;2024-03-08T10:07:14;17.70;;;9.85;;
83715;SDS011;73698;51.138;6.950;2024-03-08T10:09:39;17.52;;;9.38;;
83715;SDS011;73698;51.138;6.950;2024-03-08T10:12:06;20.42;;;10.02;;
83715;SDS011;73698;51.138;6.950;2024-03-08T10:14:32;19.98;;;9.75;;
83715;SDS011;73698;51.138;6.950;2024-03-08T10:16:58;18.15;;;10.27;;
83715;SDS011;73698;51.138;6.950;2024-03-08T10:19:26;16.58;;;9.40;;
83715;SDS011;73698;51.138;6.950;2024-03-08T10:21:54;19.42;;;9.10;;
83715;SDS011;73698;51.138;6.950;2024-03-08T10:24:22;17.67;;;9.82;;
83715;SDS011;73698;51.138;6.950;2024-03-08T10:26:51;21.95;;;10.23;;
83715;SDS011;73698;51.138;6.950;2024-03-08T10:29:18;18.58;;;9.57;;
83715;SDS011;73698;51.138;6.950;2024-03-08T10:31:43;17.77;;;9.40;;
83715;SDS011;73698;51.138;6.950;2024-03-08T10:34:09;15.57;;;8.48;;
83715;SDS011;73698;51.138;6.950;2024-03-08T10:36:35;15.57;;;7.55;;
83715;SDS011;73698;51.138;6.950;2024-03-08T10:39:03;15.88;;;8.00;;
83715;SDS011;73698;51.138;6.950;2024-03-08T10:41:34;16.48;;;8.65;;
83715;SDS011;73698;51.138;6.950;2024-03-08T10:49:30;15.70;;;8.00;;
83715;SDS011;73698;51.138;6.950;2024-03-08T10:52:15;16.13;;;8.60;;
83715;SDS011;73698;51.138;6.950;2024-03-08T10:54:43;14.27;;;7.32;;
83715;SDS011;73698;51.138;6.950;2024-03-08T10:57:10;14.82;;;7.53;;
83715;SDS011;73698;51.138;6.950;2024-03-08T10:59:37;14.73;;;8.35;;
83715;SDS011;73698;51.138;6.950;2024-03-08T11:02:04;16.15;;;7.60;;
83715;SDS011;73698;51.138;6.950;2024-03-08T11:04:30;14.20;;;6.28;;
83715;SDS011;73698;51.138;6.950;2024-03-08T11:07:01;15.00;;;7.68;;
83715;SDS011;73698;51.138;6.950;2024-03-08T11:09:31;11.32;;;6.88;;
83715;SDS011;73698;51.138;6.950;2024-03-08T11:14:49;10.77;;;6.75;;
83715;SDS011;73698;51.138;6.950;2024-03-08T11:17:16;12.32;;;7.30;;
83715;SDS011;73698;51.138;6.950;2024-03-08T11:19:46;12.52;;;6.72;;
83715;SDS011;73698;51.138;6.950;2024-03-08T11:22:28;11.52;;;6.00;;
83715;SDS011;73698;51.138;6.950;2024-03-08T11:25:04;13.60;;;7.28;;
83715;SDS011;73698;51.138;6.950;2024-03-08T11:27:35;15.10;;;7.70;;
83715;SDS011;73698;51.138;6.950;2024-03-08T11:32:37;12.18;;;7.18;;
83715;SDS011;73698;51.138;6.950;2024-03-08T11:35:07;13.73;;;7.05;;
83715;SDS011;73698;51.138;6.950;2024-03-08T11:37:44;14.75;;;7.40;;
83715;SDS011;73698;51.138;6.950;2024-03-08T11:40:13;13.02;;;7.43;;
83715;SDS011;73698;51.138;6.950;2024-03-08T11:42:43;14.20;;;7.60;;
83715;SDS011;73698;51.138;6.950;2024-03-08T11:45:11;12.27;;;6.93;;
83715;SDS011;73698;51.138;6.950;2024-03-08T11:47:38;13.38;;;6.53;;
83715;SDS011;73698;51.138;6.950;2024-03-08T11:50:06;14.38;;;7.65;;
83715;SDS011;73698;51.138;6.950;2024-03-08T11:52:35;15.60;;;6.88;;
83715;SDS011;73698;51.138;6.950;2024-03-08T11:55:01;12.88;;;6.03;;
83715;SDS011;73698;51.138;6.950;2024-03-08T11:57:30;13.32;;;7.15;;
83715;SDS011;73698;51.138;6.950;2024-03-08T11:59:55;12.65;;;6.63;;
83715;SDS011;73698;51.138;6.950;2024-03-08T12:02:22;11.32;;;6.43;;
83715;SDS011;73698;51.138;6.950;2024-03-08T12:04:50;13.30;;;6.72;;
83715;SDS011;73698;51.138;6.950;2024-03-08T12:07:21;9.77;;;6.03;;
83715;SDS011;73698;51.138;6.950;2024-03-08T12:10:13;12.55;;;6.07;;
83715;SDS011;73698;51.138;6.950;2024-03-08T12:12:47;11.35;;;6.03;;
83715;SDS011;73698;51.138;6.950;2024-03-08T12:15:15;11.93;;;6.47;;
83715;SDS011;73698;51.138;6.950;2024-03-08T12:17:42;10.65;;;5.78;;
83715;SDS011;73698;51.138;6.950;2024-03-08T12:20:14;10.98;;;6.63;;
83715;SDS011;73698;51.138;6.950;2024-03-08T12:22:41;14.23;;;7.32;;
83715;SDS011;73698;51.138;6.950;2024-03-08T12:25:07;11.30;;;6.43;;
83715;SDS011;73698;51.138;6.950;2024-03-08T12:27:35;10.65;;;6.45;;
83715;SDS011;73698;51.138;6.950;2024-03-08T12:32:51;12.65;;;7.22;;
83715;SDS011;73698;51.138;6.950;2024-03-08T12:35:25;10.57;;;6.85;;
83715;SDS011;73698;51.138;6.950;2024-03-08T12:37:57;11.73;;;6.63;;
83715;SDS011;73698;51.138;6.950;2024-03-08T12:42:54;10.18;;;6.40;;
83715;SDS011;73698;51.138;6.950;2024-03-08T12:45:20;11.40;;;7.00;;
83715;SDS011;73698;51.138;6.950;2024-03-08T12:47:49;13.57;;;6.85;;
83715;SDS011;73698;51.138;6.950;2024-03-08T12:50:18;15.65;;;7.05;;
83715;SDS011;73698;51.138;6.950;2024-03-08T12:52:47;12.75;;;6.38;;
83715;SDS011;73698;51.138;6.950;2024-03-08T12:55:14;11.48;;;7.28;;
83715;SDS011;73698;51.138;6.950;2024-03-08T12:57:43;13.48;;;7.03;;
83715;SDS011;73698;51.138;6.950;2024-03-08T13:00:09;14.13;;;7.75;;
83715;SDS011;73698;51.138;6.950;2024-03-08T13:02:46;9.52;;;6.03;;
83715;SDS011;73698;51.138;6.950;2024-03-08T13:05:12;13.38;;;6.43;;
83715;SDS011;73698;51.138;6.950;2024-03-08T13:07:39;12.85;;;7.65;;
83715;SDS011;73698;51.138;6.950;2024-03-08T13:10:06;12.50;;;6.28;;
83715;SDS011;73698;51.138;6.950;2024-03-08T13:12:32;11.05;;;6.50;;
83715;SDS011;73698;51.138;6.950;2024-03-08T13:14:58;13.32;;;6.60;;
83715;SDS011;73698;51.138;6.950;2024-03-08T13:17:23;11.32;;;6.90;;
83715;SDS011;73698;51.138;6.950;2024-03-08T13:19:49;9.38;;;5.97;;
83715;SDS011;73698;51.138;6.950;2024-03-08T13:22:14;12.18;;;7.03;;
83715;SDS011;73698;51.138;6.950;2024-03-08T13:24:44;13.10;;;7.40;;
83715;SDS011;73698;51.138;6.950;2024-03-08T13:27:10;10.70;;;6.50;;
83715;SDS011;73698;51.138;6.950;2024-03-08T13:29:45;11.60;;;6.53;;
83715;SDS011;73698;51.138;6.950;2024-03-08T13:32:12;11.43;;;7.20;;
83715;SDS011;73698;51.138;6.950;2024-03-08T13:34:40;11.50;;;6.90;;
83715;SDS011;73698;51.138;6.950;2024-03-08T13:37:06;13.20;;;6.97;;
83715;SDS011;73698;51.138;6.950;2024-03-08T13:39:32;10.50;;;5.90;;
83715;SDS011;73698;51.138;6.950;2024-03-08T13:42:08;12.75;;;6.50;;
83715;SDS011;73698;51.138;6.950;2024-03-08T13:44:38;13.57;;;7.70;;
83715;SDS011;73698;51.138;6.950;2024-03-08T13:47:15;13.75;;;6.35;;
83715;SDS011;73698;51.138;6.950;2024-03-08T13:49:42;11.82;;;6.63;;
83715;SDS011;73698;51.138;6.950;2024-03-08T13:52:09;14.20;;;7.38;;
83715;SDS011;73698;51.138;6.950;2024-03-08T13:54:35;11.43;;;6.22;;
83715;SDS011;73698;51.138;6.950;2024-03-08T13:57:01;14.27;;;6.35;;
83715;SDS011;73698;51.138;6.950;2024-03-08T13:59:29;12.45;;;6.18;;
83715;SDS011;73698;51.138;6.950;2024-03-08T14:01:58;14.02;;;6.82;;
83715;SDS011;73698;51.138;6.950;2024-03-08T14:04:25;14.30;;;7.35;;
83715;SDS011;73698;51.138;6.950;2024-03-08T14:06:52;11.65;;;6.05;;
83715;SDS011;73698;51.138;6.950;2024-03-08T14:09:21;12.80;;;6.68;;
83715;SDS011;73698;51.138;6.950;2024-03-08T14:11:49;14.75;;;7.47;;
83715;SDS011;73698;51.138;6.950;2024-03-08T14:14:18;12.43;;;6.35;;
83715;SDS011;73698;51.138;6.950;2024-03-08T14:16:46;12.20;;;6.85;;
83715;SDS011;73698;51.138;6.950;2024-03-08T14:19:13;11.68;;;6.75;;
83715;SDS011;73698;51.138;6.950;2024-03-08T14:21:40;11.93;;;7.15;;
83715;SDS011;73698;51.138;6.950;2024-03-08T14:24:07;14.25;;;6.95;;
83715;SDS011;73698;51.138;6.950;2024-03-08T14:26:33;13.38;;;7.13;;
83715;SDS011;73698;51.138;6.950;2024-03-08T14:28:59;12.75;;;7.15;;
83715;SDS011;73698;51.138;6.950;2024-03-08T14:31:24;14.68;;;8.65;;
83715;SDS011;73698;51.138;6.950;2024-03-08T14:33:53;14.82;;;8.15;;
83715;SDS011;73698;51.138;6.950;2024-03-08T14:36:20;14.00;;;7.43;;
83715;SDS011;73698;51.138;6.950;2024-03-08T14:38:48;16.95;;;8.35;;
83715;SDS011;73698;51.138;6.950;2024-03-08T14:41:13;15.00;;;7.65;;
83715;SDS011;73698;51.138;6.950;2024-03-08T14:43:42;17.25;;;8.75;;
83715;SDS011;73698;51.138;6.950;2024-03-08T14:46:10;13.25;;;8.20;;
83715;SDS011;73698;51.138;6.950;2024-03-08T14:48:42;15.63;;;9.45;;
83715;SDS011;73698;51.138;6.950;2024-03-08T14:51:10;17.80;;;8.77;;
83715;SDS011;73698;51.138;6.950;2024-03-08T14:53:39;13.93;;;8.05;;
83715;SDS011;73698;51.138;6.950;2024-03-08T14:56:06;15.35;;;8.90;;
83715;SDS011;73698;51.138;6.950;2024-03-08T14:58:33;15.88;;;8.52;;
83715;SDS011;73698;51.138;6.950;2024-03-08T15:01:00;14.85;;;7.78;;
83715;SDS011;73698;51.138;6.950;2024-03-08T15:03:27;14.98;;;7.88;;
83715;SDS011;73698;51.138;6.950;2024-03-08T15:05:54;14.40;;;8.23;;
83715;SDS011;73698;51.138;6.950;2024-03-08T15:08:20;17.17;;;9.02;;
83715;SDS011;73698;51.138;6.950;2024-03-08T15:10:48;17.30;;;8.20;;
83715;SDS011;73698;51.138;6.950;2024-03-08T15:13:20;16.30;;;8.77;;
83715;SDS011;73698;51.138;6.950;2024-03-08T15:15:52;14.68;;;7.78;;
83715;SDS011;73698;51.138;6.950;2024-03-08T15:18:24;14.82;;;7.72;;
83715;SDS011;73698;51.138;6.950;2024-03-08T15:23:33;15.38;;;7.68;;
83715;SDS011;73698;51.138;6.950;2024-03-08T15:26:02;15.30;;;7.40;;